createdAt,value
2018-12-14T00:00:20.442Z,102055.26
2018-12-14T00:02:47.939Z,102050.20
2018-12-14T00:05:15.507Z,102052.28
2018-12-14T00:07:43.052Z,102059.52
2018-12-14T00:10:10.573Z,102057.55
2018-12-14T00:12:38.038Z,102052.84
2018-12-14T00:15:06.086Z,102053.23
2018-12-14T00:17:33.675Z,102061.22
2018-12-14T00:20:01.189Z,102059.16
2018-12-14T00:22:28.699Z,102060.47
2018-12-14T00:24:56.187Z,102062.44
2018-12-14T00:27:23.989Z,102058.62
2018-12-14T00:29:51.577Z,102064.50
2018-12-14T00:32:19.294Z,102065.11
2018-12-14T00:34:46.734Z,102071.14
2018-12-14T00:37:14.368Z,102071.47
2018-12-14T00:39:41.820Z,102072.89
2018-12-14T00:42:09.342Z,102072.70
2018-12-14T00:44:36.875Z,102072.62
2018-12-14T00:47:04.395Z,102067.55
2018-12-14T00:49:31.874Z,102076.11
2018-12-14T00:51:59.420Z,102070.66
2018-12-14T00:54:26.877Z,102077.87
2018-12-14T00:56:54.407Z,102080.52
2018-12-14T00:59:21.895Z,102085.56
2018-12-14T01:01:49.415Z,102080.95
2018-12-14T01:04:16.902Z,102087.16
2018-12-14T01:06:44.408Z,102084.95
2018-12-14T01:09:11.959Z,102088.14
2018-12-14T01:11:39.498Z,102093.69
2018-12-14T01:14:07.017Z,102099.69
2018-12-14T01:16:34.529Z,102098.30
2018-12-14T01:19:02.030Z,102094.81
2018-12-14T01:21:29.489Z,102099.08
2018-12-14T01:23:56.997Z,102102.36
2018-12-14T01:26:24.679Z,102098.03
2018-12-14T01:28:52.155Z,102089.10
2018-12-14T01:31:19.723Z,102098.09
2018-12-14T01:33:47.178Z,102093.80
2018-12-14T01:36:14.674Z,102092.67
2018-12-14T01:38:42.143Z,102099.69
2018-12-14T01:41:09.626Z,102096.18
2018-12-14T01:43:37.276Z,102090.35
2018-12-14T01:46:04.763Z,102087.72
2018-12-14T01:48:32.266Z,102092.44
2018-12-14T01:50:59.738Z,102092.64
2018-12-14T01:53:27.231Z,102087.40
2018-12-14T01:55:54.737Z,102085.01
2018-12-14T01:58:22.253Z,102085.91
2018-12-14T02:00:49.738Z,102089.75
2018-12-14T02:03:17.312Z,102084.95
2018-12-14T02:05:44.884Z,102087.81
2018-12-14T02:08:12.402Z,102097.39
2018-12-14T02:10:39.984Z,102095.48
2018-12-14T02:13:07.544Z,102090.33
2018-12-14T02:15:35.042Z,102088.23
2018-12-14T02:18:02.564Z,102094.02
2018-12-14T02:20:30.057Z,102094.69
2018-12-14T02:22:57.736Z,102089.44
2018-12-14T02:25:25.280Z,102088.19
2018-12-14T02:27:52.789Z,102091.65
2018-12-14T02:30:32.234Z,102086.61
2018-12-14T02:32:59.730Z,102089.71
2018-12-14T02:35:27.206Z,102087.80
2018-12-14T02:37:55.111Z,102085.41
2018-12-14T02:40:22.628Z,102091.42
2018-12-14T02:42:50.177Z,102091.69
2018-12-14T02:45:17.718Z,102088.78
2018-12-14T02:47:45.270Z,102085.41
2018-12-14T02:50:13.054Z,102090.30
2018-12-14T02:52:40.564Z,102087.08
2018-12-14T02:55:08.068Z,102083.35
2018-12-14T02:57:35.556Z,102085.67
2018-12-14T03:00:04.362Z,102088.78
2018-12-14T03:02:31.869Z,102089.91
2018-12-14T03:04:59.381Z,102090.91
2018-12-14T03:07:26.846Z,102090.47
2018-12-14T03:09:54.334Z,102087.66
2018-12-14T03:12:26.623Z,102084.59
2018-12-14T03:14:51.345Z,102079.12
2018-12-14T03:17:19.024Z,102075.87
2018-12-14T03:19:46.528Z,102083.70
2018-12-14T03:22:14.648Z,102084.67
2018-12-14T03:24:42.109Z,102086.58
2018-12-14T03:27:09.574Z,102085.02
2018-12-14T03:29:37.101Z,102088.77
2018-12-14T03:32:04.600Z,102093.11
2018-12-14T03:34:32.145Z,102091.56
2018-12-14T03:36:59.629Z,102093.70
2018-12-14T03:39:27.143Z,102088.66
2018-12-14T03:41:54.585Z,102095.53
2018-12-14T03:44:22.091Z,102089.48
2018-12-14T03:46:49.573Z,102096.73
2018-12-14T03:49:17.067Z,102091.23
2018-12-14T03:51:44.561Z,102089.32
2018-12-14T03:54:12.145Z,102086.56
2018-12-14T03:56:39.659Z,102086.53
2018-12-14T03:59:07.153Z,102089.75
2018-12-14T04:01:34.626Z,102084.82
2018-12-14T04:04:02.166Z,102089.02
2018-12-14T04:06:29.653Z,102092.66
2018-12-14T04:08:57.128Z,102083.31
2018-12-14T04:11:24.639Z,102086.25
2018-12-14T04:13:52.212Z,102088.18
2018-12-14T04:16:19.670Z,102085.11
2018-12-14T04:18:47.127Z,102083.23
2018-12-14T04:21:14.640Z,102093.27
2018-12-14T04:23:42.095Z,102089.09
2018-12-14T04:26:10.198Z,102093.20
2018-12-14T04:28:37.676Z,102093.55
2018-12-14T04:31:05.210Z,102086.34
2018-12-14T04:33:32.874Z,102092.47
2018-12-14T04:36:00.396Z,102092.31
2018-12-14T04:38:27.842Z,102084.44
2018-12-14T04:40:55.301Z,102093.20
2018-12-14T04:43:22.824Z,102094.80
2018-12-14T04:45:50.358Z,102095.34
2018-12-14T04:48:17.826Z,102097.11
2018-12-14T04:50:45.329Z,102103.66
2018-12-14T04:53:12.782Z,102093.64
2018-12-14T04:55:40.345Z,102094.63
2018-12-14T04:58:07.886Z,102093.36
2018-12-14T05:00:35.402Z,102093.69
2018-12-14T05:03:02.953Z,102092.48
2018-12-14T05:05:30.479Z,102089.64
2018-12-14T05:07:57.948Z,102087.17
2018-12-14T05:10:25.563Z,102090.97
2018-12-14T05:12:56.032Z,102096.98
2018-12-14T05:15:22.569Z,102092.25
2018-12-14T05:17:50.015Z,102102.56
2018-12-14T05:20:17.483Z,102096.02
2018-12-14T05:22:44.989Z,102102.20
2018-12-14T05:25:12.559Z,102089.73
2018-12-14T05:27:40.052Z,102098.69
2018-12-14T05:30:08.038Z,102105.19
2018-12-14T05:32:35.559Z,102101.61
2018-12-14T05:35:03.077Z,102100.52
2018-12-14T05:37:30.568Z,102105.50
2018-12-14T05:39:58.145Z,102107.87
2018-12-14T05:42:25.621Z,102108.47
2018-12-14T05:44:53.075Z,102113.95
2018-12-14T05:47:20.557Z,102110.52
2018-12-14T05:49:48.055Z,102114.28
2018-12-14T05:52:15.563Z,102118.52
2018-12-14T05:54:43.141Z,102117.55
2018-12-14T05:57:10.739Z,102113.84
2018-12-14T05:59:38.269Z,102117.91
2018-12-14T06:02:05.864Z,102116.47
2018-12-14T06:04:33.351Z,102116.38
2018-12-14T06:07:00.827Z,102115.82
2018-12-14T06:09:28.301Z,102115.09
2018-12-14T06:11:55.760Z,102117.86
2018-12-14T06:14:23.279Z,102123.00
2018-12-14T06:16:50.765Z,102133.64
2018-12-14T06:19:18.329Z,102128.91
2018-12-14T06:21:45.879Z,102121.00
2018-12-14T06:24:13.346Z,102123.13
2018-12-14T06:26:40.902Z,102128.25
2018-12-14T06:29:08.378Z,102121.31
2018-12-14T06:31:35.944Z,102134.92
2018-12-14T06:34:03.465Z,102135.09
2018-12-14T06:36:31.007Z,102142.37
2018-12-14T06:38:58.538Z,102144.37
2018-12-14T06:41:26.051Z,102144.31
2018-12-14T06:43:53.673Z,102150.20
2018-12-14T06:46:21.126Z,102148.34
2018-12-14T06:48:48.623Z,102153.81
2018-12-14T06:51:16.141Z,102152.36
2018-12-14T06:53:43.624Z,102158.02
2018-12-14T06:56:11.109Z,102155.86
2018-12-14T06:58:38.641Z,102162.61
2018-12-14T07:01:06.157Z,102159.98
2018-12-14T07:03:33.610Z,102165.77
2018-12-14T07:06:01.103Z,102159.39
2018-12-14T07:08:28.658Z,102160.34
2018-12-14T07:10:56.121Z,102162.23
2018-12-14T07:13:23.591Z,102160.47
2018-12-14T07:15:51.093Z,102170.69
2018-12-14T07:18:18.569Z,102170.22
2018-12-14T07:20:46.079Z,102166.61
2018-12-14T07:23:13.545Z,102170.94
2018-12-14T07:25:41.016Z,102172.86
2018-12-14T07:28:08.489Z,102172.95
2018-12-14T07:30:36.017Z,102171.16
2018-12-14T07:33:03.501Z,102169.66
2018-12-14T07:35:31.078Z,102173.55
2018-12-14T07:37:58.592Z,102168.17
2018-12-14T07:40:26.043Z,102181.00
2018-12-14T07:42:53.536Z,102184.47
2018-12-14T07:45:20.995Z,102181.33
2018-12-14T07:47:48.592Z,102189.97
2018-12-14T07:50:16.079Z,102190.53
2018-12-14T07:52:43.582Z,102193.91
2018-12-14T07:55:11.081Z,102189.13
2018-12-14T07:57:38.546Z,102200.54
2018-12-14T08:00:08.066Z,102197.44
2018-12-14T08:02:35.620Z,102204.80
2018-12-14T08:05:04.056Z,102206.39
2018-12-14T08:07:31.548Z,102205.82
2018-12-14T08:09:59.038Z,102204.26
2018-12-14T08:12:26.565Z,102208.38
2018-12-14T08:14:54.068Z,102206.66
2018-12-14T08:17:21.556Z,102210.22
2018-12-14T08:19:48.992Z,102217.17
2018-12-14T08:22:16.493Z,102217.12
2018-12-14T08:24:44.014Z,102223.12
2018-12-14T08:27:11.568Z,102218.67
2018-12-14T08:29:39.227Z,102223.91
2018-12-14T08:32:06.715Z,102221.78
2018-12-14T08:34:34.288Z,102221.67
2018-12-14T08:37:01.755Z,102227.31
2018-12-14T08:39:29.223Z,102221.21
2018-12-14T08:41:56.701Z,102230.87
2018-12-14T08:44:24.235Z,102230.16
2018-12-14T08:46:51.779Z,102235.48
2018-12-14T08:49:19.250Z,102240.23
2018-12-14T08:51:46.832Z,102242.55
2018-12-14T08:54:14.337Z,102238.27
2018-12-14T08:56:41.966Z,102244.42
2018-12-14T08:59:09.483Z,102242.47
2018-12-14T09:01:36.977Z,102249.95
2018-12-14T09:04:04.479Z,102249.56
2018-12-14T09:06:32.018Z,102251.18
2018-12-14T09:08:59.591Z,102255.30
2018-12-14T09:11:27.135Z,102251.69
2018-12-14T09:13:54.647Z,102264.31
2018-12-14T09:16:22.196Z,102257.23
2018-12-14T09:18:49.756Z,102251.53
2018-12-14T09:21:17.258Z,102253.79
2018-12-14T09:23:44.762Z,102249.45
2018-12-14T09:26:12.532Z,102259.19
2018-12-14T09:28:40.198Z,102260.34
2018-12-14T09:31:07.707Z,102266.42
2018-12-14T09:33:35.294Z,102263.44
2018-12-14T09:36:02.822Z,102262.19
2018-12-14T09:38:30.311Z,102256.83
2018-12-14T09:40:57.976Z,102262.88
2018-12-14T09:43:25.509Z,102264.55
2018-12-14T09:45:53.008Z,102264.33
2018-12-14T09:48:20.584Z,102263.78
2018-12-14T09:50:48.291Z,102263.55
2018-12-14T09:53:15.852Z,102269.26
2018-12-14T09:55:43.385Z,102259.77
2018-12-14T09:58:10.872Z,102262.92
2018-12-14T10:00:38.388Z,102263.33
2018-12-14T10:03:05.864Z,102257.98
2018-12-14T10:05:33.439Z,102260.48
2018-12-14T10:08:00.920Z,102260.67
2018-12-14T10:10:28.444Z,102261.30
2018-12-14T10:12:55.931Z,102264.95
2018-12-14T10:15:23.525Z,102250.67
2018-12-14T10:17:51.023Z,102258.19
2018-12-14T10:20:18.554Z,102258.65
2018-12-14T10:22:46.021Z,102254.34
2018-12-14T10:25:13.514Z,102256.17
2018-12-14T10:27:41.015Z,102257.68
2018-12-14T10:30:09.548Z,102259.03
2018-12-14T10:32:37.078Z,102263.68
2018-12-14T10:35:07.666Z,102257.61
2018-12-14T10:37:35.178Z,102260.06
2018-12-14T10:40:02.692Z,102252.48
2018-12-14T10:42:30.686Z,102259.02
2018-12-14T10:44:58.279Z,102256.81
2018-12-14T10:47:25.780Z,102256.61
2018-12-14T10:49:53.334Z,102253.20
2018-12-14T10:52:20.925Z,102252.95
2018-12-14T10:54:48.589Z,102254.22
2018-12-14T10:57:16.343Z,102255.16
2018-12-14T10:59:44.062Z,102252.64
2018-12-14T11:02:11.746Z,102255.13
2018-12-14T11:04:39.954Z,102250.12
2018-12-14T11:07:07.494Z,102249.42
2018-12-14T11:09:35.385Z,102251.37
2018-12-14T11:12:02.901Z,102252.84
2018-12-14T11:14:30.383Z,102259.91
2018-12-14T11:16:57.855Z,102256.77
2018-12-14T11:19:25.320Z,102258.91
2018-12-14T11:21:52.826Z,102255.12
2018-12-14T11:24:20.309Z,102257.34
2018-12-14T11:26:47.836Z,102258.98
2018-12-14T11:29:15.390Z,102260.95
2018-12-14T11:31:42.946Z,102260.68
2018-12-14T11:34:10.500Z,102264.88
2018-12-14T11:36:38.002Z,102265.45
2018-12-14T11:39:06.200Z,102257.83
2018-12-14T11:41:33.746Z,102260.07
2018-12-14T11:44:01.207Z,102268.20
2018-12-14T11:46:28.787Z,102266.69
2018-12-14T11:48:56.414Z,102273.23
2018-12-14T11:51:23.961Z,102274.78
2018-12-14T11:53:51.437Z,102275.04
2018-12-14T11:56:19.021Z,102280.59
2018-12-14T11:58:46.606Z,102282.27
2018-12-14T12:01:14.144Z,102278.70
2018-12-14T12:03:42.883Z,102280.80
2018-12-14T12:06:10.637Z,102276.38
2018-12-14T12:08:38.206Z,102278.94
2018-12-14T12:11:05.702Z,102281.73
2018-12-14T12:13:33.212Z,102279.75
2018-12-14T12:16:00.709Z,102278.05
2018-12-14T12:18:28.236Z,102283.87
2018-12-14T12:20:55.751Z,102282.58
2018-12-14T12:23:23.853Z,102274.50
2018-12-14T12:25:51.346Z,102281.91
2018-12-14T12:28:18.916Z,102280.22
2018-12-14T12:30:46.625Z,102280.61
2018-12-14T12:33:14.148Z,102272.05
2018-12-14T12:35:41.795Z,102276.48
2018-12-14T12:38:09.309Z,102277.54
2018-12-14T12:40:37.474Z,102275.91
2018-12-14T12:43:04.958Z,102276.67
2018-12-14T12:45:32.490Z,102286.50
2018-12-14T12:48:00.045Z,102280.26
2018-12-14T12:50:27.526Z,102278.43
2018-12-14T12:52:55.165Z,102284.18
2018-12-14T12:55:22.710Z,102276.73
2018-12-14T12:57:50.186Z,102277.80
2018-12-14T13:00:17.765Z,102272.06
2018-12-14T13:02:45.247Z,102272.77
2018-12-14T13:05:12.808Z,102268.26
2018-12-14T13:07:40.320Z,102274.67
2018-12-14T13:10:07.855Z,102279.83
2018-12-14T13:12:35.342Z,102278.06
2018-12-14T13:15:03.125Z,102286.09
2018-12-14T13:17:30.693Z,102283.98
2018-12-14T13:19:58.189Z,102284.78
2018-12-14T13:22:25.691Z,102285.30
2018-12-14T13:24:53.259Z,102284.09
2018-12-14T13:27:20.788Z,102284.58
2018-12-14T13:29:48.327Z,102284.34
2018-12-14T13:32:16.742Z,102287.87
2018-12-14T13:34:44.237Z,102291.88
2018-12-14T13:37:11.700Z,102292.77
2018-12-14T13:39:39.206Z,102295.27
2018-12-14T13:42:06.815Z,102297.48
2018-12-14T13:44:34.649Z,102295.88
2018-12-14T13:47:02.214Z,102291.65
2018-12-14T13:49:29.878Z,102300.31
2018-12-14T13:51:57.436Z,102300.13
2018-12-14T13:54:24.928Z,102297.72
2018-12-14T13:56:52.541Z,102303.80
2018-12-14T13:59:20.023Z,102303.66
2018-12-14T14:01:47.584Z,102301.53
2018-12-14T14:04:15.030Z,102303.61
2018-12-14T14:06:42.511Z,102307.92
2018-12-14T14:09:10.083Z,102301.56
2018-12-14T14:11:37.604Z,102313.30
2018-12-14T14:14:05.121Z,102313.73
2018-12-14T14:16:32.575Z,102315.03
2018-12-14T14:19:00.063Z,102313.68
2018-12-14T14:21:27.559Z,102319.50
2018-12-14T14:23:55.129Z,102324.19
2018-12-14T14:26:22.589Z,102325.75
2018-12-14T14:28:50.069Z,102325.26
2018-12-14T14:31:17.583Z,102331.98
2018-12-14T14:33:45.115Z,102333.98
2018-12-14T14:36:12.634Z,102335.22
2018-12-14T14:38:40.094Z,102331.55
2018-12-14T14:41:07.622Z,102337.78
2018-12-14T14:43:35.132Z,102341.00
2018-12-14T14:46:02.711Z,102344.80
2018-12-14T14:48:30.293Z,102338.03
2018-12-14T14:50:57.831Z,102345.13
2018-12-14T14:53:25.418Z,102353.34
2018-12-14T14:55:52.861Z,102345.88
2018-12-14T14:58:20.421Z,102348.16
2018-12-14T15:00:47.920Z,102350.50
2018-12-14T15:03:15.369Z,102354.16
2018-12-14T15:05:42.908Z,102356.16
2018-12-14T15:08:10.409Z,102346.44
2018-12-14T15:10:37.875Z,102349.26
2018-12-14T15:13:05.418Z,102350.44
2018-12-14T15:15:32.890Z,102352.75
2018-12-14T15:18:00.371Z,102343.36
2018-12-14T15:20:27.821Z,102353.00
2018-12-14T15:22:55.403Z,102360.64
2018-12-14T15:25:22.973Z,102350.59
2018-12-14T15:27:50.494Z,102356.96
2018-12-14T15:30:18.082Z,102354.55
2018-12-14T15:32:45.576Z,102353.44
2018-12-14T15:35:13.054Z,102356.16
2018-12-14T15:37:40.570Z,102355.72
2018-12-14T15:40:09.078Z,102361.23
2018-12-14T15:42:36.554Z,102361.06
2018-12-14T15:45:04.375Z,102357.89
2018-12-14T15:47:31.829Z,102358.63
2018-12-14T15:49:59.331Z,102359.52
2018-12-14T15:52:27.979Z,102359.22
2018-12-14T15:54:55.793Z,102372.65
2018-12-14T15:57:23.279Z,102371.43
2018-12-14T15:59:50.786Z,102369.58
2018-12-14T16:02:18.296Z,102369.81
2018-12-14T16:04:45.916Z,102368.53
2018-12-14T16:07:13.443Z,102377.82
2018-12-14T16:09:40.994Z,102378.11
2018-12-14T16:12:08.501Z,102383.91
2018-12-14T16:14:36.199Z,102383.27
2018-12-14T16:17:03.873Z,102380.10
2018-12-14T16:19:31.390Z,102381.00
2018-12-14T16:21:59.064Z,102382.05
2018-12-14T16:24:26.553Z,102379.23
2018-12-14T16:26:54.014Z,102386.02
2018-12-14T16:29:21.491Z,102385.13
2018-12-14T16:31:49.030Z,102387.23
2018-12-14T16:34:16.508Z,102384.45
2018-12-14T16:36:44.076Z,102390.31
2018-12-14T16:39:11.575Z,102388.91
2018-12-14T16:41:39.076Z,102385.57
2018-12-14T16:44:06.609Z,102386.17
2018-12-14T16:46:34.110Z,102388.81
2018-12-14T16:49:01.595Z,102386.56
2018-12-14T16:51:29.955Z,102384.80
2018-12-14T16:54:04.847Z,102392.14
2018-12-14T16:56:32.382Z,102394.03
2018-12-14T16:58:59.947Z,102394.09
2018-12-14T17:01:27.600Z,102394.19
2018-12-14T17:03:55.077Z,102390.86
2018-12-14T17:06:22.591Z,102389.25
2018-12-14T17:08:50.143Z,102387.68
2018-12-14T17:11:17.695Z,102390.69
2018-12-14T17:13:45.194Z,102397.55
2018-12-14T17:16:12.912Z,102397.03
2018-12-14T17:18:40.370Z,102399.66
2018-12-14T17:21:07.847Z,102399.02
2018-12-14T17:23:35.373Z,102405.33
2018-12-14T17:26:02.839Z,102409.09
2018-12-14T17:28:30.322Z,102403.09
2018-12-14T17:30:57.822Z,102404.59
2018-12-14T17:33:25.440Z,102405.33
2018-12-14T17:35:52.922Z,102406.34
2018-12-14T17:38:20.415Z,102408.20
2018-12-14T17:40:48.529Z,102410.00
2018-12-14T17:43:16.118Z,102408.72
2018-12-14T17:45:43.628Z,102415.56
2018-12-14T17:48:11.135Z,102412.72
2018-12-14T17:50:38.706Z,102408.11
2018-12-14T17:53:06.190Z,102404.20
2018-12-14T17:55:33.775Z,102410.45
2018-12-14T17:58:01.307Z,102416.61
2018-12-14T18:00:28.799Z,102420.08
2018-12-14T18:02:56.285Z,102422.73
2018-12-14T18:05:23.785Z,102420.61
2018-12-14T18:07:51.243Z,102422.22
2018-12-14T18:10:18.767Z,102421.07
2018-12-14T18:12:46.324Z,102418.22
2018-12-14T18:15:13.851Z,102418.59
2018-12-14T18:17:41.353Z,102417.96
2018-12-14T18:20:08.928Z,102417.36
2018-12-14T18:22:36.748Z,102414.43
2018-12-14T18:25:04.889Z,102417.23
2018-12-14T18:27:32.367Z,102424.17
2018-12-14T18:30:00.092Z,102422.80
2018-12-14T18:32:27.559Z,102430.25
2018-12-14T18:34:55.049Z,102434.84
2018-12-14T18:37:22.514Z,102430.48
2018-12-14T18:39:50.022Z,102435.80
2018-12-14T18:42:17.488Z,102437.39
2018-12-14T18:44:44.990Z,102432.60
2018-12-14T18:47:12.501Z,102436.48
2018-12-14T18:49:39.999Z,102436.66
2018-12-14T18:52:07.588Z,102445.69
2018-12-14T18:54:35.119Z,102444.39
2018-12-14T18:57:02.659Z,102443.28
2018-12-14T18:59:30.257Z,102441.25
2018-12-14T19:01:57.771Z,102447.63
2018-12-14T19:04:25.352Z,102452.53
2018-12-14T19:06:53.098Z,102450.52
2018-12-14T19:09:20.712Z,102449.90
2018-12-14T19:11:48.193Z,102451.33
2018-12-14T19:14:16.391Z,102452.56
2018-12-14T19:16:43.890Z,102453.98
2018-12-14T19:19:11.455Z,102460.75
2018-12-14T19:21:39.046Z,102458.73
2018-12-14T19:24:06.584Z,102461.66
2018-12-14T19:26:34.068Z,102459.23
2018-12-14T19:29:02.194Z,102456.81
2018-12-14T19:31:29.900Z,102460.28
2018-12-14T19:33:57.435Z,102460.73
2018-12-14T19:36:24.950Z,102465.83
2018-12-14T19:38:52.450Z,102463.61
2018-12-14T19:41:19.940Z,102467.05
2018-12-14T19:43:47.461Z,102473.91
2018-12-14T19:46:14.960Z,102476.61
2018-12-14T19:48:42.500Z,102481.05
2018-12-14T19:51:10.012Z,102480.53
2018-12-14T19:53:37.570Z,102484.09
2018-12-14T19:56:05.117Z,102485.15
2018-12-14T19:58:32.692Z,102483.47
2018-12-14T20:01:00.344Z,102486.46
2018-12-14T20:03:27.941Z,102489.05
2018-12-14T20:05:56.099Z,102490.68
2018-12-14T20:08:24.306Z,102489.92
2018-12-14T20:10:51.839Z,102485.73
2018-12-14T20:13:19.603Z,102489.42
2018-12-14T20:15:47.130Z,102486.25
2018-12-14T20:18:14.642Z,102489.62
2018-12-14T20:20:42.328Z,102495.86
2018-12-14T20:23:10.698Z,102498.52
2018-12-14T20:25:38.787Z,102494.47
2018-12-14T20:28:06.280Z,102496.67
2018-12-14T20:30:33.758Z,102506.36
2018-12-14T20:33:03.379Z,102507.80
2018-12-14T20:35:30.971Z,102504.84
2018-12-14T20:37:58.758Z,102514.72
2018-12-14T20:40:26.437Z,102514.42
2018-12-14T20:42:53.962Z,102513.14
2018-12-14T20:45:21.539Z,102516.16
2018-12-14T20:47:49.704Z,102511.96
2018-12-14T20:50:17.202Z,102521.06
2018-12-14T20:52:44.718Z,102515.95
2018-12-14T20:55:12.332Z,102512.22
2018-12-14T20:57:40.203Z,102515.54
2018-12-14T21:00:08.689Z,102513.33
2018-12-14T21:02:37.080Z,102512.25
2018-12-14T21:05:05.457Z,102514.48
2018-12-14T21:07:32.998Z,102512.78
2018-12-14T21:10:00.534Z,102511.26
2018-12-14T21:12:29.467Z,102507.06
2018-12-14T21:14:57.057Z,102515.94
2018-12-14T21:17:24.532Z,102510.31
2018-12-14T21:19:53.615Z,102516.03
2018-12-14T21:22:21.155Z,102512.88
2018-12-14T21:24:48.733Z,102507.84
2018-12-14T21:27:16.205Z,102508.47
2018-12-14T21:29:43.815Z,102511.63
2018-12-14T21:32:11.314Z,102516.44
2018-12-14T21:34:38.794Z,102514.39
2018-12-14T21:37:06.310Z,102518.70
2018-12-14T21:39:34.672Z,102519.22
2018-12-14T21:42:02.145Z,102514.06
2018-12-14T21:44:29.638Z,102514.02
2018-12-14T21:46:57.901Z,102518.37
2018-12-14T21:49:26.036Z,102518.59
2018-12-14T21:51:53.500Z,102516.50
2018-12-14T21:54:21.032Z,102511.17
2018-12-14T21:56:48.477Z,102504.84
2018-12-14T21:59:15.955Z,102511.63
2018-12-14T22:01:43.540Z,102507.53
2018-12-14T22:04:11.089Z,102508.98
2018-12-14T22:06:38.564Z,102500.63
2018-12-14T22:09:07.542Z,102507.20
2018-12-14T22:11:35.031Z,102510.63
2018-12-14T22:14:02.603Z,102511.58
2018-12-14T22:16:30.105Z,102509.63
2018-12-14T22:18:57.629Z,102507.29
2018-12-14T22:21:25.275Z,102507.38
2018-12-14T22:23:52.828Z,102509.63
2018-12-14T22:26:20.428Z,102511.20
2018-12-14T22:28:47.987Z,102515.81
2018-12-14T22:31:15.536Z,102509.89
2018-12-14T22:33:43.071Z,102510.91
2018-12-14T22:36:10.550Z,102513.13
2018-12-14T22:38:38.142Z,102504.05
2018-12-14T22:41:05.663Z,102510.70
2018-12-14T22:43:33.131Z,102513.85
2018-12-14T22:46:00.635Z,102510.30
2018-12-14T22:48:28.166Z,102503.97
2018-12-14T22:50:55.674Z,102507.29
2018-12-14T22:53:23.191Z,102509.63
2018-12-14T22:55:50.671Z,102508.56
2018-12-14T22:58:18.207Z,102509.97
2018-12-14T23:00:51.737Z,102508.14
2018-12-14T23:03:19.327Z,102506.66
2018-12-14T23:05:46.789Z,102501.84
2018-12-14T23:08:14.259Z,102507.41
2018-12-14T23:10:41.771Z,102502.47
2018-12-14T23:13:09.290Z,102509.94
2018-12-14T23:15:36.797Z,102507.34
2018-12-14T23:18:04.320Z,102509.81
2018-12-14T23:20:31.837Z,102513.17
2018-12-14T23:22:59.398Z,102516.75
2018-12-14T23:25:26.919Z,102520.55
2018-12-14T23:27:54.433Z,102524.67
2018-12-14T23:30:21.985Z,102527.61
2018-12-14T23:32:49.479Z,102525.09
2018-12-14T23:35:16.957Z,102525.75
2018-12-14T23:37:44.430Z,102518.77
2018-12-14T23:40:11.933Z,102525.09
2018-12-14T23:42:39.416Z,102525.09
2018-12-14T23:45:06.971Z,102524.03
2018-12-14T23:47:34.525Z,102522.02
2018-12-14T23:50:02.127Z,102527.06
2018-12-14T23:52:29.616Z,102533.84
2018-12-14T23:54:57.139Z,102528.72
2018-12-14T23:57:24.689Z,102526.38
2018-12-14T23:59:52.162Z,102528.72
